createdAt,value
2017-08-10T00:00:55.637Z,4.47
2017-08-10T00:03:23.035Z,4.90
2017-08-10T00:05:51.217Z,4.20
2017-08-10T00:08:19.398Z,4.77
2017-08-10T00:10:46.814Z,5.20
2017-08-10T00:13:14.230Z,5.57
2017-08-10T00:15:41.646Z,5.40
2017-08-10T00:18:09.065Z,5.73
2017-08-10T00:20:36.486Z,5.40
2017-08-10T00:23:04.654Z,5.20
2017-08-10T00:25:32.847Z,4.40
2017-08-10T00:28:00.259Z,5.73
2017-08-10T00:30:27.683Z,5.53
2017-08-10T00:32:55.093Z,4.50
2017-08-10T00:35:22.524Z,5.40
2017-08-10T00:37:49.946Z,6.27
2017-08-10T00:40:17.375Z,5.40
2017-08-10T00:42:44.789Z,5.33
2017-08-10T00:45:12.210Z,5.17
2017-08-10T00:47:39.625Z,5.70
2017-08-10T00:50:07.799Z,4.70
2017-08-10T00:52:35.228Z,5.60
2017-08-10T00:55:02.642Z,5.80
2017-08-10T00:57:30.837Z,4.93
2017-08-10T01:00:00.166Z,4.27
2017-08-10T01:11:14.644Z,4.47
2017-08-10T01:13:42.082Z,4.33
2017-08-10T01:16:09.487Z,4.57
2017-08-10T01:18:36.918Z,5.13
2017-08-10T01:21:05.234Z,4.33
2017-08-10T01:23:32.661Z,5.30
2017-08-10T01:26:01.625Z,5.10
2017-08-10T01:28:29.054Z,5.17
2017-08-10T01:30:56.472Z,5.00
2017-08-10T01:33:23.887Z,4.20
2017-08-10T01:35:51.299Z,4.73
2017-08-10T01:38:18.709Z,3.57
2017-08-10T01:40:46.127Z,4.47
2017-08-10T01:43:14.310Z,3.80
2017-08-10T01:45:42.498Z,4.10
2017-08-10T01:48:09.911Z,4.40
2017-08-10T01:50:37.323Z,4.17
2017-08-10T01:53:04.737Z,3.60
2017-08-10T01:55:32.155Z,3.37
2017-08-10T01:57:59.570Z,3.60
2017-08-10T02:00:27.515Z,3.83
2017-08-10T02:02:55.693Z,4.03
2017-08-10T02:05:23.886Z,3.90
2017-08-10T02:07:51.294Z,3.73
2017-08-10T02:10:18.821Z,3.47
2017-08-10T02:12:46.232Z,3.50
2017-08-10T02:15:13.650Z,3.00
2017-08-10T02:17:41.071Z,3.63
2017-08-10T02:20:08.487Z,3.30
2017-08-10T02:22:35.915Z,3.63
2017-08-10T02:25:04.112Z,2.80
2017-08-10T02:27:31.539Z,3.40
2017-08-10T02:29:58.950Z,2.60
2017-08-10T02:32:27.140Z,3.30
2017-08-10T02:34:54.554Z,3.47
2017-08-10T02:37:21.971Z,3.60
2017-08-10T02:39:49.377Z,3.43
2017-08-10T02:42:16.802Z,5.43
2017-08-10T02:44:44.214Z,3.80
2017-08-10T02:47:11.635Z,3.73
2017-08-10T02:49:39.958Z,3.53
2017-08-10T02:52:07.370Z,3.43
2017-08-10T02:54:34.798Z,3.50
2017-08-10T02:57:02.218Z,2.70
2017-08-10T03:05:31.674Z,3.80
2017-08-10T03:07:59.095Z,2.37
2017-08-10T03:10:26.516Z,3.47
2017-08-10T03:12:53.918Z,3.40
2017-08-10T03:15:22.404Z,2.70
2017-08-10T03:17:50.580Z,3.50
2017-08-10T03:20:17.999Z,3.37
2017-08-10T03:22:45.419Z,3.93
2017-08-10T03:25:13.598Z,3.47
2017-08-10T03:27:41.015Z,3.37
2017-08-10T03:30:09.195Z,3.63
2017-08-10T03:32:36.606Z,3.50
2017-08-10T03:35:04.052Z,4.10
2017-08-10T03:37:31.454Z,4.27
2017-08-10T03:40:00.460Z,3.57
2017-08-10T03:42:27.870Z,3.50
2017-08-10T03:44:55.296Z,3.60
2017-08-10T03:47:22.702Z,4.53
2017-08-10T03:49:50.122Z,4.90
2017-08-10T03:52:17.535Z,3.93
2017-08-10T03:54:44.951Z,3.63
2017-08-10T03:57:12.374Z,3.50
2017-08-10T04:05:25.898Z,2.93
2017-08-10T04:07:54.015Z,3.23
2017-08-10T04:10:21.426Z,3.80
2017-08-10T04:12:48.850Z,3.70
2017-08-10T04:15:16.674Z,3.70
2017-08-10T04:17:44.090Z,3.93
2017-08-10T04:20:11.510Z,3.90
2017-08-10T04:22:38.937Z,3.70
2017-08-10T04:25:07.226Z,3.47
2017-08-10T04:27:34.651Z,3.60
2017-08-10T04:30:02.067Z,4.37
2017-08-10T04:32:29.488Z,4.33
2017-08-10T04:34:57.675Z,4.10
2017-08-10T04:37:25.087Z,4.20
2017-08-10T04:39:52.510Z,4.57
2017-08-10T04:42:20.282Z,5.33
2017-08-10T04:44:47.699Z,5.33
2017-08-10T04:47:15.139Z,5.40
2017-08-10T04:49:43.307Z,5.53
2017-08-10T04:52:11.486Z,5.07
2017-08-10T04:54:39.792Z,5.40
2017-08-10T04:57:07.211Z,5.43
2017-08-10T04:59:34.626Z,5.00
2017-08-10T05:02:02.037Z,5.30
2017-08-10T05:04:29.458Z,5.63
2017-08-10T05:06:56.879Z,5.80
2017-08-10T05:09:24.909Z,5.07
2017-08-10T05:11:53.102Z,5.60
2017-08-10T05:14:21.073Z,4.97
2017-08-10T05:16:48.486Z,4.90
2017-08-10T05:19:16.146Z,4.53
2017-08-10T05:21:43.548Z,4.60
2017-08-10T05:24:10.961Z,5.17
2017-08-10T05:26:38.384Z,5.10
2017-08-10T05:29:06.205Z,5.03
2017-08-10T05:31:33.621Z,6.43
2017-08-10T05:34:01.038Z,5.60
2017-08-10T05:36:28.467Z,5.07
2017-08-10T05:38:55.883Z,5.40
2017-08-10T05:41:23.304Z,5.53
2017-08-10T05:43:50.726Z,5.93
2017-08-10T05:46:18.146Z,6.53
2017-08-10T05:48:46.062Z,6.60
2017-08-10T05:51:14.242Z,7.27
2017-08-10T05:53:41.654Z,7.30
2017-08-10T05:56:09.077Z,6.73
2017-08-10T05:58:36.485Z,7.63
2017-08-10T06:07:07.615Z,9.43
2017-08-10T06:09:35.021Z,8.57
2017-08-10T06:12:02.456Z,10.40
2017-08-10T06:14:29.858Z,9.07
2017-08-10T06:16:58.999Z,7.40
2017-08-10T06:19:26.415Z,7.50
2017-08-10T06:21:53.846Z,7.27
2017-08-10T06:24:21.254Z,6.87
2017-08-10T06:26:48.664Z,5.60
2017-08-10T06:29:16.874Z,6.70
2017-08-10T06:31:44.290Z,6.00
2017-08-10T06:34:11.705Z,6.93
2017-08-10T06:36:39.126Z,6.67
2017-08-10T06:39:07.460Z,5.30
2017-08-10T06:41:34.867Z,5.00
2017-08-10T06:44:03.050Z,4.20
2017-08-10T06:46:30.467Z,5.00
2017-08-10T06:48:57.891Z,4.90
2017-08-10T06:51:25.309Z,4.60
2017-08-10T06:53:52.730Z,4.90
2017-08-10T06:56:20.142Z,4.60
2017-08-10T06:58:47.562Z,4.30
2017-08-10T07:01:26.103Z,4.30
2017-08-10T07:03:53.525Z,4.50
2017-08-10T07:06:20.943Z,3.77
2017-08-10T07:08:48.359Z,4.00
2017-08-10T07:11:17.363Z,4.90
2017-08-10T07:13:44.783Z,4.13
2017-08-10T07:16:12.200Z,4.73
2017-08-10T07:18:39.611Z,3.77
2017-08-10T07:21:07.795Z,4.50
2017-08-10T07:23:35.974Z,4.23
2017-08-10T07:26:03.394Z,3.60
2017-08-10T07:28:34.701Z,3.83
2017-08-10T07:31:02.559Z,3.97
2017-08-10T07:33:29.974Z,3.50
2017-08-10T07:35:57.390Z,3.27
2017-08-10T07:38:25.590Z,3.73
2017-08-10T07:40:53.020Z,3.07
2017-08-10T07:43:20.418Z,3.67
2017-08-10T07:45:48.729Z,3.40
2017-08-10T07:48:16.148Z,3.50
2017-08-10T07:50:43.549Z,3.90
2017-08-10T07:53:10.968Z,4.03
2017-08-10T07:55:38.403Z,4.63
2017-08-10T07:58:05.814Z,3.70
2017-08-10T08:00:33.229Z,4.00
2017-08-10T08:03:00.649Z,3.90
2017-08-10T08:05:28.061Z,3.70
2017-08-10T08:07:56.253Z,4.90
2017-08-10T08:10:24.188Z,4.00
2017-08-10T08:12:51.604Z,4.73
2017-08-10T08:15:19.023Z,5.43
2017-08-10T08:17:47.743Z,4.33
2017-08-10T08:20:15.158Z,4.70
2017-08-10T08:22:43.346Z,5.40
2017-08-10T08:25:11.266Z,4.77
2017-08-10T08:27:38.699Z,5.00
2017-08-10T08:30:06.115Z,5.03
2017-08-10T08:32:34.326Z,5.40
2017-08-10T08:35:01.729Z,5.80
2017-08-10T08:37:29.167Z,5.57
2017-08-10T08:39:56.578Z,4.90
2017-08-10T08:42:23.989Z,6.87
2017-08-10T08:44:51.406Z,4.90
2017-08-10T08:47:18.826Z,6.03
2017-08-10T08:49:47.468Z,5.30
2017-08-10T08:52:14.878Z,5.40
2017-08-10T08:54:42.298Z,4.63
2017-08-10T08:57:09.715Z,5.20
2017-08-10T08:59:37.144Z,5.03
2017-08-10T09:02:05.319Z,5.30
2017-08-10T09:04:32.734Z,5.97
2017-08-10T09:07:00.138Z,5.13
2017-08-10T09:09:27.576Z,3.47
2017-08-10T09:11:56.554Z,2.77
2017-08-10T09:14:24.735Z,2.50
2017-08-10T09:16:52.162Z,3.00
2017-08-10T09:19:19.566Z,3.50
2017-08-10T09:21:46.986Z,3.83
2017-08-10T09:24:14.399Z,4.17
2017-08-10T09:26:41.814Z,4.80
2017-08-10T09:29:09.227Z,5.10
2017-08-10T09:31:36.656Z,5.33
2017-08-10T09:34:04.067Z,5.47
2017-08-10T09:36:31.510Z,5.10
2017-08-10T09:38:58.914Z,5.03
2017-08-10T09:41:26.323Z,5.30
2017-08-10T09:43:54.097Z,5.70
2017-08-10T09:46:21.501Z,6.47
2017-08-10T09:48:48.919Z,6.03
2017-08-10T09:51:16.577Z,5.43
2017-08-10T09:53:43.992Z,5.73
2017-08-10T09:56:11.397Z,5.40
2017-08-10T09:58:39.585Z,4.97
2017-08-10T10:24:12.391Z,4.80
2017-08-10T10:26:39.811Z,4.53
2017-08-10T10:29:07.218Z,3.57
2017-08-10T10:31:35.403Z,4.50
2017-08-10T10:34:02.815Z,4.10
2017-08-10T10:36:30.663Z,3.83
2017-08-10T10:38:58.064Z,4.10
2017-08-10T10:41:26.247Z,3.23
2017-08-10T10:43:54.424Z,3.80
2017-08-10T10:46:23.734Z,4.27
2017-08-10T10:48:51.146Z,3.87
2017-08-10T10:51:19.202Z,4.00
2017-08-10T10:53:46.971Z,3.93
2017-08-10T10:56:14.389Z,4.53
2017-08-10T10:58:41.798Z,4.50
2017-08-10T11:01:32.690Z,3.77
2017-08-10T11:04:00.109Z,4.27
2017-08-10T11:06:27.523Z,4.40
2017-08-10T11:08:54.929Z,4.20
2017-08-10T11:11:22.347Z,3.80
2017-08-10T11:13:49.766Z,4.63
2017-08-10T11:16:17.955Z,4.53
2017-08-10T11:18:45.382Z,3.97
2017-08-10T11:21:12.799Z,5.30
2017-08-10T11:23:40.205Z,5.13
2017-08-10T11:26:07.626Z,4.60
2017-08-10T11:28:35.046Z,4.63
2017-08-10T11:31:02.469Z,4.43
2017-08-10T11:33:31.000Z,5.10
2017-08-10T11:35:59.174Z,5.43
2017-08-10T11:38:26.601Z,4.53
2017-08-10T11:40:54.014Z,5.70
2017-08-10T11:43:21.441Z,5.20
2017-08-10T11:45:48.848Z,5.47
2017-08-10T11:48:16.283Z,5.20
2017-08-10T11:50:43.686Z,6.23
2017-08-10T11:53:11.120Z,5.87
2017-08-10T11:55:38.527Z,6.43
2017-08-10T11:58:06.709Z,7.17
2017-08-10T12:09:34.676Z,7.43
2017-08-10T12:12:02.078Z,6.63
2017-08-10T12:14:29.507Z,8.00
2017-08-10T12:16:56.914Z,7.63
2017-08-10T12:19:24.397Z,7.00
2017-08-10T12:21:51.792Z,7.03
2017-08-10T12:24:19.211Z,9.17
2017-08-10T12:26:46.626Z,7.90
2017-08-10T12:29:14.809Z,8.00
2017-08-10T12:31:42.241Z,9.90
2017-08-10T12:34:10.291Z,8.70
2017-08-10T12:36:37.710Z,8.70
2017-08-10T12:39:05.127Z,8.10
2017-08-10T12:41:32.546Z,8.57
2017-08-10T12:43:59.962Z,9.33
2017-08-10T12:46:27.391Z,9.03
2017-08-10T12:48:54.802Z,8.40
2017-08-10T12:51:22.222Z,9.70
2017-08-10T12:53:49.634Z,9.20
2017-08-10T12:56:17.060Z,9.90
2017-08-10T12:58:44.476Z,8.43
2017-08-10T13:09:51.041Z,8.40
2017-08-10T13:12:18.462Z,7.87
2017-08-10T13:14:45.882Z,7.07
2017-08-10T13:17:13.302Z,6.83
2017-08-10T13:19:40.714Z,6.53
2017-08-10T13:22:08.138Z,6.30
2017-08-10T13:24:35.559Z,4.97
2017-08-10T13:27:04.850Z,6.00
2017-08-10T13:29:33.026Z,6.47
2017-08-10T13:32:01.239Z,6.07
2017-08-10T13:34:28.657Z,7.10
2017-08-10T13:36:56.826Z,6.67
2017-08-10T13:39:25.026Z,7.43
2017-08-10T13:41:52.433Z,7.60
2017-08-10T13:44:19.859Z,7.67
2017-08-10T13:46:47.806Z,8.20
2017-08-10T13:49:15.222Z,7.30
2017-08-10T13:51:42.638Z,6.90
2017-08-10T13:54:10.063Z,8.60
2017-08-10T13:56:37.470Z,7.13
2017-08-10T13:59:04.899Z,7.17
2017-08-10T14:01:32.313Z,7.37
2017-08-10T14:04:00.479Z,7.33
2017-08-10T14:06:28.667Z,7.00
2017-08-10T14:08:56.082Z,8.10
2017-08-10T14:11:23.504Z,7.90
2017-08-10T14:13:50.922Z,8.57
2017-08-10T14:16:18.339Z,8.87
2017-08-10T14:18:45.762Z,10.20
2017-08-10T14:21:13.188Z,12.23
2017-08-10T14:23:41.389Z,18.50
2017-08-10T14:26:09.319Z,18.03
2017-08-10T14:28:36.743Z,8.40
2017-08-10T14:31:04.162Z,7.50
2017-08-10T14:33:31.574Z,9.50
2017-08-10T14:35:58.994Z,7.63
2017-08-10T14:38:26.409Z,9.27
2017-08-10T14:40:53.827Z,7.57
2017-08-10T14:43:21.238Z,6.23
2017-08-10T14:45:48.675Z,6.90
2017-08-10T14:48:16.090Z,7.00
2017-08-10T14:50:43.503Z,6.23
2017-08-10T14:53:11.686Z,7.60
2017-08-10T14:55:39.110Z,7.97
2017-08-10T14:58:06.529Z,6.77
2017-08-10T15:00:34.739Z,6.83
2017-08-10T15:03:02.167Z,8.77
2017-08-10T15:05:29.586Z,7.67
2017-08-10T15:07:57.006Z,7.23
2017-08-10T15:10:24.430Z,7.57
2017-08-10T15:12:51.842Z,7.13
2017-08-10T15:15:19.259Z,8.07
2017-08-10T15:17:46.673Z,7.07
2017-08-10T15:20:14.890Z,6.77
2017-08-10T15:22:42.315Z,8.70
2017-08-10T15:25:09.734Z,12.53
2017-08-10T15:27:37.927Z,9.80
2017-08-10T15:30:05.345Z,8.50
2017-08-10T15:32:32.780Z,13.33
2017-08-10T15:35:01.816Z,11.17
2017-08-10T15:37:29.991Z,8.70
2017-08-10T15:39:58.174Z,8.60
2017-08-10T15:42:25.592Z,8.40
2017-08-10T15:44:53.008Z,6.70
2017-08-10T15:47:20.422Z,8.03
2017-08-10T15:49:47.843Z,8.10
2017-08-10T15:52:15.258Z,8.37
2017-08-10T15:54:42.686Z,9.13
2017-08-10T15:57:10.098Z,7.90
2017-08-10T15:59:37.526Z,9.30
2017-08-10T16:02:04.946Z,8.90
2017-08-10T16:04:32.362Z,9.60
2017-08-10T16:06:59.770Z,8.10
2017-08-10T16:09:28.080Z,8.50
2017-08-10T16:11:55.503Z,9.27
2017-08-10T16:14:22.906Z,9.13
2017-08-10T16:16:50.331Z,8.20
2017-08-10T16:19:19.199Z,8.00
2017-08-10T16:21:46.618Z,8.27
2017-08-10T16:24:14.026Z,8.43
2017-08-10T16:26:42.212Z,8.43
2017-08-10T16:29:09.631Z,7.23
2017-08-10T16:31:37.049Z,7.60
2017-08-10T16:34:04.451Z,8.83
2017-08-10T16:36:31.874Z,9.13
2017-08-10T16:38:59.287Z,8.63
2017-08-10T16:41:27.475Z,8.57
2017-08-10T16:43:56.818Z,7.87
2017-08-10T16:46:24.254Z,7.07
2017-08-10T16:48:51.666Z,7.30
2017-08-10T16:51:19.852Z,6.83
2017-08-10T16:53:47.266Z,8.07
2017-08-10T16:56:14.689Z,7.40
2017-08-10T16:58:42.099Z,6.90
2017-08-10T17:04:05.659Z,7.20
2017-08-10T17:06:33.545Z,8.07
2017-08-10T17:09:01.485Z,8.13
2017-08-10T17:11:30.446Z,7.13
2017-08-10T17:13:57.875Z,6.90
2017-08-10T17:16:25.289Z,8.30
2017-08-10T17:18:53.534Z,8.33
2017-08-10T17:21:20.952Z,11.23
2017-08-10T17:23:48.373Z,9.03
2017-08-10T17:26:15.790Z,8.10
2017-08-10T17:28:43.203Z,8.90
2017-08-10T17:31:10.631Z,8.10
2017-08-10T17:33:38.042Z,8.07
2017-08-10T17:36:05.462Z,8.10
2017-08-10T17:38:32.859Z,8.70
2017-08-10T17:41:01.048Z,8.73
2017-08-10T17:43:29.230Z,7.93
2017-08-10T17:45:56.642Z,7.87
2017-08-10T17:48:24.071Z,8.20
2017-08-10T17:50:51.500Z,8.60
2017-08-10T17:53:19.790Z,8.23
2017-08-10T17:55:47.220Z,8.30
2017-08-10T17:58:14.622Z,8.40
2017-08-10T18:00:42.077Z,8.40
2017-08-10T18:03:09.499Z,9.17
2017-08-10T18:05:36.915Z,9.20
2017-08-10T18:08:04.339Z,9.53
2017-08-10T18:10:32.537Z,9.80
2017-08-10T18:12:59.959Z,8.30
2017-08-10T18:15:27.804Z,10.27
2017-08-10T18:17:55.226Z,9.80
2017-08-10T18:20:22.647Z,9.70
2017-08-10T18:22:50.065Z,9.63
2017-08-10T18:25:18.318Z,9.93
2017-08-10T18:27:46.440Z,8.70
2017-08-10T18:30:14.626Z,10.33
2017-08-10T18:32:42.060Z,10.30
2017-08-10T18:35:09.483Z,11.47
2017-08-10T18:37:36.903Z,9.90
2017-08-10T18:40:04.319Z,11.60
2017-08-10T18:42:31.758Z,9.43
2017-08-10T18:44:59.931Z,9.30
2017-08-10T18:47:28.006Z,9.73
2017-08-10T18:49:55.447Z,9.80
2017-08-10T18:52:22.870Z,10.00
2017-08-10T18:54:50.833Z,9.40
2017-08-10T18:57:18.244Z,8.73
2017-08-10T18:59:46.428Z,8.67
2017-08-10T19:02:14.611Z,8.27
2017-08-10T19:04:42.030Z,9.60
2017-08-10T19:07:09.445Z,8.67
2017-08-10T19:09:36.858Z,9.53
2017-08-10T19:12:05.578Z,11.80
2017-08-10T19:14:33.007Z,13.60
2017-08-10T19:17:01.208Z,12.17
2017-08-10T19:19:28.625Z,9.93
2017-08-10T19:21:57.037Z,10.33
2017-08-10T19:24:24.462Z,9.10
2017-08-10T19:26:52.653Z,8.90
2017-08-10T19:29:20.099Z,9.60
2017-08-10T19:31:48.276Z,8.73
2017-08-10T19:34:15.695Z,9.40
2017-08-10T19:36:43.132Z,9.07
2017-08-10T19:39:10.537Z,9.23
2017-08-10T19:41:38.723Z,8.60
2017-08-10T19:44:06.907Z,8.80
2017-08-10T19:46:34.327Z,8.60
2017-08-10T19:49:01.747Z,9.27
2017-08-10T19:51:29.162Z,8.30
2017-08-10T19:53:56.578Z,8.80
2017-08-10T19:56:23.998Z,8.67
2017-08-10T19:58:51.426Z,8.37
2017-08-10T20:01:19.610Z,8.63
2017-08-10T20:03:47.105Z,9.30
2017-08-10T20:06:15.980Z,8.57
2017-08-10T20:08:43.370Z,9.30
2017-08-10T20:11:11.932Z,8.73
2017-08-10T20:13:40.131Z,8.87
2017-08-10T20:22:15.387Z,10.17
2017-08-10T20:24:43.053Z,8.97
2017-08-10T20:27:10.457Z,8.40
2017-08-10T20:29:39.434Z,8.40
2017-08-10T20:32:06.854Z,8.47
2017-08-10T20:34:34.269Z,8.73
2017-08-10T20:37:01.694Z,8.63
2017-08-10T20:39:29.114Z,8.13
2017-08-10T20:41:56.530Z,8.60
2017-08-10T20:44:24.723Z,8.23
2017-08-10T20:46:52.137Z,8.87
2017-08-10T20:49:21.115Z,9.23
2017-08-10T20:51:48.522Z,8.47
2017-08-10T20:54:15.951Z,7.60
2017-08-10T20:56:43.370Z,7.57
2017-08-10T20:59:10.790Z,8.27
2017-08-10T21:01:38.186Z,6.87
2017-08-10T21:04:05.610Z,7.47
2017-08-10T21:06:33.024Z,7.10
2017-08-10T21:09:00.458Z,6.63
2017-08-10T21:11:27.862Z,6.77
2017-08-10T21:13:56.322Z,7.43
2017-08-10T21:19:18.670Z,6.20
2017-08-10T21:21:46.091Z,6.30
2017-08-10T21:24:13.510Z,5.97
2017-08-10T21:26:40.926Z,6.23
2017-08-10T21:29:08.340Z,6.60
2017-08-10T21:31:35.753Z,7.27
2017-08-10T21:34:03.177Z,7.30
2017-08-10T21:36:30.594Z,5.97
2017-08-10T21:38:58.010Z,7.00
2017-08-10T21:41:25.427Z,6.63
2017-08-10T21:43:53.638Z,7.27
2017-08-10T21:46:21.060Z,5.67
2017-08-10T21:48:49.421Z,6.63
2017-08-10T21:51:17.598Z,6.77
2017-08-10T21:53:45.016Z,6.70
2017-08-10T21:56:12.431Z,7.20
2017-08-10T21:58:39.859Z,7.13
2017-08-10T22:01:07.279Z,6.57
2017-08-10T22:03:34.703Z,7.80
2017-08-10T22:06:03.270Z,6.13
2017-08-10T22:08:30.708Z,7.30
2017-08-10T22:10:58.882Z,7.50
2017-08-10T22:13:26.294Z,6.60
2017-08-10T22:15:53.702Z,6.30
2017-08-10T22:18:42.900Z,6.67
2017-08-10T22:21:10.328Z,7.90
2017-08-10T22:23:37.733Z,5.60
2017-08-10T22:26:05.150Z,5.40
2017-08-10T22:28:32.568Z,6.13
2017-08-10T22:31:00.790Z,5.30
2017-08-10T22:33:28.206Z,6.30
2017-08-10T22:35:56.385Z,6.30
2017-08-10T22:38:24.562Z,5.50
2017-08-10T22:40:51.976Z,5.40
2017-08-10T22:43:19.387Z,6.03
2017-08-10T22:45:46.807Z,5.20
2017-08-10T22:48:16.888Z,5.83
2017-08-10T22:50:45.085Z,4.97
2017-08-10T22:53:12.499Z,5.40
2017-08-10T22:55:40.570Z,5.53
2017-08-10T22:58:07.966Z,5.50
2017-08-10T23:00:36.062Z,5.20
2017-08-10T23:09:04.305Z,5.97
2017-08-10T23:11:31.724Z,4.90
2017-08-10T23:13:59.768Z,5.10
2017-08-10T23:16:44.400Z,5.40
2017-08-10T23:19:12.831Z,5.77
2017-08-10T23:21:40.254Z,5.60
2017-08-10T23:24:07.662Z,5.67
2017-08-10T23:26:36.540Z,5.97
2017-08-10T23:29:03.994Z,5.20
2017-08-10T23:31:32.110Z,5.83
2017-08-10T23:33:59.523Z,6.13
2017-08-10T23:36:26.938Z,6.47
2017-08-10T23:38:54.360Z,6.60
2017-08-10T23:41:21.779Z,6.63
2017-08-10T23:43:49.982Z,6.70
2017-08-10T23:46:17.394Z,6.70
2017-08-10T23:48:44.815Z,5.50
2017-08-10T23:51:12.926Z,6.23
2017-08-10T23:53:41.119Z,5.77
2017-08-10T23:56:08.998Z,6.17
2017-08-10T23:58:37.176Z,6.33
